首页
METAR-TAF:

METAR-TAF

机场 :

那不勒斯, 佛罗里达州, 美国

纬度: 26-09N, 经度: 081-46W, 海拔: 2米

当前天气观测

该预报发布于15分钟前的11:53 UTC
风速14节,风向西,有时为21节阵风
温度 29°C
湿度 84%
气压 1014 hPa
能見度: 16.1公里
散云层高于2600英尺
多云层高于4100英尺

METAR: KAPF 111153Z 28014G21KT 10SM SCT026 BKN041 29/26 A2995 RMK AO2 SLP141 T02940256 10300 20272 53008

时间: 08:08 (12:08 UTC)

预报

该预报发布于48分钟前的11:20 UTC
预报有效从11日的 12点(UTC)到 12日的 12点(UTC)
风速9节,风向西
能見度: 10公里
散云层高于2500英尺
散云层高于20000英尺
附近有阵雨
短暂存在
从 11日的 12点(UTC)到 11日的 14点(UTC)
能見度: 8.0公里
多云层高于2500英尺
阵雨
从 11日的 1600点(UTC)
风速14节,风向西转西北
能見度: 10公里
散云层高于3500英尺
附近有阵雨
从 11日的 2300点(UTC)
风速10节,风向西
能見度: 10公里
少量云层高于2500英尺
从 12日的 0200点(UTC)
风速5节,风向西转西南
能見度: 10公里
少量云层高于5000英尺
散云层高于25000英尺

TAF: KAPF 111120Z 1112/1212 27009KT P6SM VCSH SCT025 SCT200 TEMPO 1112/1114 5SM SHRA BKN025 FM111600 29014KT P6SM VCSH SCT035 FM112300 27010KT P6SM FEW025 FM120200 24005KT P6SM FEW050 SCT250

超过4000个机场的气象观测和天气预报(METAR&TAF报告)。

可查询的气象台以黄色和红色小点在地图上表示。

将鼠标移到小点上方,可查看气象台名称。

然后点击查看天气观测和预报。

如需切换地图:点击带黑十字的绿色按钮放大地图;点击带横线的绿色按钮缩小地图;或者点击绿色箭头查看邻近地区的地图。


METAR-TAF: